sensor_id;sensor_type;location;lat;lon;timestamp;P1;durP1;ratioP1;P2;durP2;ratioP2
37299;SDS011;23184;51.902;12.836;2023-01-25T00:00:13;73.28;;;23.88;;
37299;SDS011;23184;51.902;12.836;2023-01-25T00:02:38;93.25;;;24.67;;
37299;SDS011;23184;51.902;12.836;2023-01-25T00:05:04;69.00;;;23.17;;
37299;SDS011;23184;51.902;12.836;2023-01-25T00:07:30;83.18;;;23.88;;
37299;SDS011;23184;51.902;12.836;2023-01-25T00:09:55;70.97;;;22.73;;
37299;SDS011;23184;51.902;12.836;2023-01-25T00:12:21;75.35;;;24.08;;
37299;SDS011;23184;51.902;12.836;2023-01-25T00:14:46;76.45;;;22.95;;
37299;SDS011;23184;51.902;12.836;2023-01-25T00:17:12;71.78;;;23.90;;
37299;SDS011;23184;51.902;12.836;2023-01-25T00:19:38;79.20;;;24.40;;
37299;SDS011;23184;51.902;12.836;2023-01-25T00:22:04;70.60;;;22.50;;
37299;SDS011;23184;51.902;12.836;2023-01-25T00:24:29;82.47;;;24.38;;
37299;SDS011;23184;51.902;12.836;2023-01-25T00:26:55;82.05;;;25.38;;
37299;SDS011;23184;51.902;12.836;2023-01-25T00:29:20;79.80;;;24.05;;
37299;SDS011;23184;51.902;12.836;2023-01-25T00:31:50;77.00;;;23.50;;
37299;SDS011;23184;51.902;12.836;2023-01-25T00:34:33;83.80;;;25.20;;
37299;SDS011;23184;51.902;12.836;2023-01-25T00:39:36;91.60;;;24.92;;
37299;SDS011;23184;51.902;12.836;2023-01-25T00:42:03;81.40;;;25.05;;
37299;SDS011;23184;51.902;12.836;2023-01-25T00:44:29;81.55;;;24.27;;
37299;SDS011;23184;51.902;12.836;2023-01-25T00:46:54;79.50;;;24.10;;
37299;SDS011;23184;51.902;12.836;2023-01-25T00:49:24;83.45;;;25.38;;
37299;SDS011;23184;51.902;12.836;2023-01-25T00:51:51;78.45;;;24.02;;
37299;SDS011;23184;51.902;12.836;2023-01-25T00:54:18;76.75;;;23.30;;
37299;SDS011;23184;51.902;12.836;2023-01-25T00:56:44;78.90;;;25.48;;
37299;SDS011;23184;51.902;12.836;2023-01-25T00:59:10;82.85;;;23.58;;
37299;SDS011;23184;51.902;12.836;2023-01-25T01:01:36;81.10;;;23.42;;
37299;SDS011;23184;51.902;12.836;2023-01-25T01:04:02;82.85;;;24.17;;
37299;SDS011;23184;51.902;12.836;2023-01-25T01:06:27;76.80;;;22.90;;
37299;SDS011;23184;51.902;12.836;2023-01-25T01:08:53;79.30;;;25.20;;
37299;SDS011;23184;51.902;12.836;2023-01-25T01:11:18;77.47;;;24.40;;
37299;SDS011;23184;51.902;12.836;2023-01-25T01:13:44;81.57;;;24.20;;
37299;SDS011;23184;51.902;12.836;2023-01-25T01:16:10;74.97;;;23.10;;
37299;SDS011;23184;51.902;12.836;2023-01-25T01:18:38;85.30;;;24.35;;
37299;SDS011;23184;51.902;12.836;2023-01-25T01:21:07;70.13;;;25.27;;
37299;SDS011;23184;51.902;12.836;2023-01-25T01:23:33;70.45;;;23.27;;
37299;SDS011;23184;51.902;12.836;2023-01-25T01:26:00;66.38;;;24.33;;
37299;SDS011;23184;51.902;12.836;2023-01-25T01:28:29;83.05;;;24.50;;
37299;SDS011;23184;51.902;12.836;2023-01-25T01:31:03;82.55;;;24.00;;
37299;SDS011;23184;51.902;12.836;2023-01-25T01:33:30;76.70;;;26.15;;
37299;SDS011;23184;51.902;12.836;2023-01-25T01:35:56;69.13;;;22.85;;
37299;SDS011;23184;51.902;12.836;2023-01-25T01:38:21;80.40;;;24.50;;
37299;SDS011;23184;51.902;12.836;2023-01-25T01:40:48;74.65;;;24.90;;
37299;SDS011;23184;51.902;12.836;2023-01-25T01:43:18;74.45;;;24.10;;
37299;SDS011;23184;51.902;12.836;2023-01-25T01:54:20;70.55;;;24.40;;
37299;SDS011;23184;51.902;12.836;2023-01-25T01:59:35;73.07;;;23.30;;
37299;SDS011;23184;51.902;12.836;2023-01-25T02:02:04;71.88;;;24.50;;
37299;SDS011;23184;51.902;12.836;2023-01-25T02:04:30;65.07;;;23.10;;
37299;SDS011;23184;51.902;12.836;2023-01-25T02:09:43;81.20;;;26.05;;
37299;SDS011;23184;51.902;12.836;2023-01-25T02:12:09;65.30;;;22.60;;
37299;SDS011;23184;51.902;12.836;2023-01-25T02:14:37;70.78;;;23.52;;
37299;SDS011;23184;51.902;12.836;2023-01-25T02:17:08;65.88;;;24.15;;
37299;SDS011;23184;51.902;12.836;2023-01-25T02:22:41;74.10;;;24.77;;
37299;SDS011;23184;51.902;12.836;2023-01-25T02:25:13;68.65;;;23.52;;
37299;SDS011;23184;51.902;12.836;2023-01-25T02:27:43;63.60;;;23.75;;
37299;SDS011;23184;51.902;12.836;2023-01-25T02:30:12;74.47;;;25.95;;
37299;SDS011;23184;51.902;12.836;2023-01-25T02:32:38;67.30;;;24.02;;
37299;SDS011;23184;51.902;12.836;2023-01-25T02:35:04;80.13;;;24.30;;
37299;SDS011;23184;51.902;12.836;2023-01-25T02:37:29;63.20;;;22.67;;
37299;SDS011;23184;51.902;12.836;2023-01-25T02:39:55;75.22;;;25.05;;
37299;SDS011;23184;51.902;12.836;2023-01-25T02:42:21;68.18;;;22.80;;
37299;SDS011;23184;51.902;12.836;2023-01-25T02:44:46;72.03;;;23.80;;
37299;SDS011;23184;51.902;12.836;2023-01-25T02:47:13;64.68;;;24.73;;
37299;SDS011;23184;51.902;12.836;2023-01-25T02:49:39;74.55;;;25.92;;
37299;SDS011;23184;51.902;12.836;2023-01-25T02:52:04;65.03;;;23.83;;
37299;SDS011;23184;51.902;12.836;2023-01-25T02:54:30;67.00;;;24.85;;
37299;SDS011;23184;51.902;12.836;2023-01-25T02:56:55;72.55;;;23.38;;
37299;SDS011;23184;51.902;12.836;2023-01-25T02:59:21;64.80;;;23.55;;
37299;SDS011;23184;51.902;12.836;2023-01-25T03:01:47;65.25;;;23.83;;
37299;SDS011;23184;51.902;12.836;2023-01-25T03:06:58;70.20;;;24.38;;
37299;SDS011;23184;51.902;12.836;2023-01-25T03:09:23;76.10;;;24.80;;
37299;SDS011;23184;51.902;12.836;2023-01-25T03:11:49;59.15;;;22.60;;
37299;SDS011;23184;51.902;12.836;2023-01-25T03:14:14;70.70;;;24.88;;
37299;SDS011;23184;51.902;12.836;2023-01-25T03:16:40;64.45;;;22.73;;
37299;SDS011;23184;51.902;12.836;2023-01-25T03:19:05;70.78;;;24.02;;
37299;SDS011;23184;51.902;12.836;2023-01-25T03:21:30;64.53;;;25.08;;
37299;SDS011;23184;51.902;12.836;2023-01-25T03:23:57;66.32;;;23.83;;
37299;SDS011;23184;51.902;12.836;2023-01-25T03:26:24;65.20;;;23.38;;
37299;SDS011;23184;51.902;12.836;2023-01-25T03:28:51;60.42;;;23.08;;
37299;SDS011;23184;51.902;12.836;2023-01-25T03:31:17;57.95;;;21.90;;
37299;SDS011;23184;51.902;12.836;2023-01-25T03:33:43;64.30;;;23.42;;
37299;SDS011;23184;51.902;12.836;2023-01-25T03:36:09;63.45;;;22.58;;
37299;SDS011;23184;51.902;12.836;2023-01-25T03:38:35;61.58;;;23.08;;
37299;SDS011;23184;51.902;12.836;2023-01-25T03:41:01;58.50;;;21.85;;
37299;SDS011;23184;51.902;12.836;2023-01-25T03:43:27;61.65;;;22.98;;
37299;SDS011;23184;51.902;12.836;2023-01-25T03:45:54;58.08;;;23.20;;
37299;SDS011;23184;51.902;12.836;2023-01-25T03:48:24;61.33;;;22.92;;
37299;SDS011;23184;51.902;12.836;2023-01-25T03:50:51;56.90;;;21.75;;
37299;SDS011;23184;51.902;12.836;2023-01-25T03:53:18;61.65;;;23.70;;
37299;SDS011;23184;51.902;12.836;2023-01-25T03:56:00;59.78;;;22.77;;
37299;SDS011;23184;51.902;12.836;2023-01-25T03:58:28;56.83;;;23.13;;
37299;SDS011;23184;51.902;12.836;2023-01-25T04:00:55;53.35;;;21.48;;
37299;SDS011;23184;51.902;12.836;2023-01-25T04:03:22;39.53;;;16.92;;
37299;SDS011;23184;51.902;12.836;2023-01-25T04:05:48;47.17;;;17.75;;
37299;SDS011;23184;51.902;12.836;2023-01-25T04:08:13;35.67;;;15.70;;
37299;SDS011;23184;51.902;12.836;2023-01-25T04:10:39;36.58;;;14.88;;
37299;SDS011;23184;51.902;12.836;2023-01-25T04:13:04;34.85;;;14.25;;
37299;SDS011;23184;51.902;12.836;2023-01-25T04:15:30;46.50;;;17.67;;
37299;SDS011;23184;51.902;12.836;2023-01-25T04:17:55;50.65;;;19.52;;
37299;SDS011;23184;51.902;12.836;2023-01-25T04:20:21;54.70;;;20.20;;
37299;SDS011;23184;51.902;12.836;2023-01-25T04:22:47;51.00;;;19.95;;
37299;SDS011;23184;51.902;12.836;2023-01-25T04:25:12;55.70;;;21.13;;
37299;SDS011;23184;51.902;12.836;2023-01-25T04:27:38;53.70;;;19.70;;
37299;SDS011;23184;51.902;12.836;2023-01-25T04:30:04;54.85;;;21.00;;
37299;SDS011;23184;51.902;12.836;2023-01-25T04:32:30;49.45;;;20.27;;
37299;SDS011;23184;51.902;12.836;2023-01-25T04:34:55;48.13;;;19.05;;
37299;SDS011;23184;51.902;12.836;2023-01-25T04:37:20;36.70;;;16.10;;
37299;SDS011;23184;51.902;12.836;2023-01-25T04:39:46;40.38;;;16.48;;
37299;SDS011;23184;51.902;12.836;2023-01-25T04:42:11;44.17;;;17.08;;
37299;SDS011;23184;51.902;12.836;2023-01-25T04:44:37;42.35;;;17.55;;
37299;SDS011;23184;51.902;12.836;2023-01-25T04:47:02;45.45;;;18.30;;
37299;SDS011;23184;51.902;12.836;2023-01-25T04:49:28;39.60;;;16.77;;
37299;SDS011;23184;51.902;12.836;2023-01-25T04:51:53;40.83;;;16.83;;
37299;SDS011;23184;51.902;12.836;2023-01-25T04:54:19;44.95;;;16.70;;
37299;SDS011;23184;51.902;12.836;2023-01-25T04:56:44;45.70;;;17.35;;
37299;SDS011;23184;51.902;12.836;2023-01-25T04:59:10;43.88;;;16.80;;
37299;SDS011;23184;51.902;12.836;2023-01-25T05:01:35;44.03;;;17.88;;
37299;SDS011;23184;51.902;12.836;2023-01-25T05:04:01;37.80;;;15.75;;
37299;SDS011;23184;51.902;12.836;2023-01-25T05:06:26;41.70;;;16.30;;
37299;SDS011;23184;51.902;12.836;2023-01-25T05:08:51;40.42;;;16.90;;
37299;SDS011;23184;51.902;12.836;2023-01-25T05:11:17;35.92;;;15.05;;
37299;SDS011;23184;51.902;12.836;2023-01-25T05:13:42;34.13;;;14.50;;
37299;SDS011;23184;51.902;12.836;2023-01-25T05:16:08;34.25;;;15.63;;
37299;SDS011;23184;51.902;12.836;2023-01-25T05:18:33;36.75;;;14.75;;
37299;SDS011;23184;51.902;12.836;2023-01-25T05:20:59;40.42;;;16.58;;
37299;SDS011;23184;51.902;12.836;2023-01-25T05:23:24;38.92;;;17.17;;
37299;SDS011;23184;51.902;12.836;2023-01-25T05:25:50;38.30;;;15.30;;
37299;SDS011;23184;51.902;12.836;2023-01-25T05:28:38;43.30;;;16.02;;
37299;SDS011;23184;51.902;12.836;2023-01-25T05:31:04;43.05;;;17.05;;
37299;SDS011;23184;51.902;12.836;2023-01-25T05:33:29;48.50;;;17.45;;
37299;SDS011;23184;51.902;12.836;2023-01-25T05:35:55;35.17;;;15.57;;
37299;SDS011;23184;51.902;12.836;2023-01-25T05:38:22;39.42;;;15.18;;
37299;SDS011;23184;51.902;12.836;2023-01-25T05:40:48;43.65;;;15.60;;
37299;SDS011;23184;51.902;12.836;2023-01-25T05:43:13;39.75;;;17.10;;
37299;SDS011;23184;51.902;12.836;2023-01-25T05:45:39;44.63;;;16.92;;
37299;SDS011;23184;51.902;12.836;2023-01-25T05:48:04;50.38;;;18.05;;
37299;SDS011;23184;51.902;12.836;2023-01-25T05:50:30;42.17;;;17.05;;
37299;SDS011;23184;51.902;12.836;2023-01-25T05:52:55;44.35;;;16.58;;
37299;SDS011;23184;51.902;12.836;2023-01-25T05:55:21;41.88;;;17.02;;
37299;SDS011;23184;51.902;12.836;2023-01-25T05:57:46;56.53;;;22.67;;
37299;SDS011;23184;51.902;12.836;2023-01-25T06:00:12;48.70;;;20.63;;
37299;SDS011;23184;51.902;12.836;2023-01-25T06:02:38;49.20;;;20.75;;
37299;SDS011;23184;51.902;12.836;2023-01-25T06:05:04;48.13;;;19.67;;
37299;SDS011;23184;51.902;12.836;2023-01-25T06:07:32;62.05;;;23.40;;
37299;SDS011;23184;51.902;12.836;2023-01-25T06:10:00;57.67;;;23.55;;
37299;SDS011;23184;51.902;12.836;2023-01-25T06:12:26;52.97;;;21.35;;
37299;SDS011;23184;51.902;12.836;2023-01-25T06:14:51;58.17;;;22.92;;
37299;SDS011;23184;51.902;12.836;2023-01-25T06:17:17;56.88;;;22.73;;
37299;SDS011;23184;51.902;12.836;2023-01-25T06:19:43;59.05;;;23.33;;
37299;SDS011;23184;51.902;12.836;2023-01-25T06:22:08;60.00;;;24.15;;
37299;SDS011;23184;51.902;12.836;2023-01-25T06:24:34;53.47;;;19.85;;
37299;SDS011;23184;51.902;12.836;2023-01-25T06:26:59;47.13;;;18.65;;
37299;SDS011;23184;51.902;12.836;2023-01-25T06:29:25;48.67;;;20.10;;
37299;SDS011;23184;51.902;12.836;2023-01-25T06:31:50;49.20;;;18.50;;
37299;SDS011;23184;51.902;12.836;2023-01-25T06:34:16;49.22;;;18.90;;
37299;SDS011;23184;51.902;12.836;2023-01-25T06:36:41;53.40;;;20.63;;
37299;SDS011;23184;51.902;12.836;2023-01-25T06:39:07;50.85;;;19.70;;
37299;SDS011;23184;51.902;12.836;2023-01-25T06:41:33;51.03;;;18.67;;
37299;SDS011;23184;51.902;12.836;2023-01-25T06:43:58;47.83;;;18.77;;
37299;SDS011;23184;51.902;12.836;2023-01-25T06:46:24;53.45;;;19.45;;
37299;SDS011;23184;51.902;12.836;2023-01-25T06:48:49;47.10;;;19.65;;
37299;SDS011;23184;51.902;12.836;2023-01-25T06:51:15;47.45;;;20.27;;
37299;SDS011;23184;51.902;12.836;2023-01-25T06:53:42;57.72;;;22.40;;
37299;SDS011;23184;51.902;12.836;2023-01-25T06:56:16;45.25;;;18.77;;
37299;SDS011;23184;51.902;12.836;2023-01-25T06:58:44;36.15;;;14.35;;
37299;SDS011;23184;51.902;12.836;2023-01-25T07:03:40;34.83;;;14.70;;
37299;SDS011;23184;51.902;12.836;2023-01-25T07:06:07;37.22;;;14.32;;
37299;SDS011;23184;51.902;12.836;2023-01-25T07:08:34;39.83;;;16.10;;
37299;SDS011;23184;51.902;12.836;2023-01-25T07:11:01;32.15;;;13.90;;
37299;SDS011;23184;51.902;12.836;2023-01-25T07:13:29;38.33;;;14.48;;
37299;SDS011;23184;51.902;12.836;2023-01-25T07:15:56;39.90;;;14.70;;
37299;SDS011;23184;51.902;12.836;2023-01-25T07:18:23;35.30;;;15.00;;
37299;SDS011;23184;51.902;12.836;2023-01-25T07:20:50;36.83;;;15.40;;
37299;SDS011;23184;51.902;12.836;2023-01-25T07:23:16;37.22;;;15.55;;
37299;SDS011;23184;51.902;12.836;2023-01-25T07:25:42;48.90;;;16.80;;
37299;SDS011;23184;51.902;12.836;2023-01-25T07:28:09;46.42;;;17.77;;
37299;SDS011;23184;51.902;12.836;2023-01-25T07:30:35;44.45;;;16.73;;
37299;SDS011;23184;51.902;12.836;2023-01-25T07:33:00;42.03;;;16.20;;
37299;SDS011;23184;51.902;12.836;2023-01-25T07:35:26;36.58;;;14.48;;
37299;SDS011;23184;51.902;12.836;2023-01-25T07:37:51;44.35;;;15.90;;
37299;SDS011;23184;51.902;12.836;2023-01-25T07:40:17;56.05;;;21.90;;
37299;SDS011;23184;51.902;12.836;2023-01-25T07:42:42;65.22;;;24.70;;
37299;SDS011;23184;51.902;12.836;2023-01-25T07:45:08;62.03;;;24.90;;
37299;SDS011;23184;51.902;12.836;2023-01-25T07:47:33;70.47;;;23.75;;
37299;SDS011;23184;51.902;12.836;2023-01-25T07:49:59;68.15;;;26.40;;
37299;SDS011;23184;51.902;12.836;2023-01-25T07:52:25;68.60;;;25.90;;
37299;SDS011;23184;51.902;12.836;2023-01-25T07:54:50;64.95;;;24.58;;
37299;SDS011;23184;51.902;12.836;2023-01-25T07:57:16;68.78;;;25.27;;
37299;SDS011;23184;51.902;12.836;2023-01-25T07:59:41;52.33;;;19.45;;
37299;SDS011;23184;51.902;12.836;2023-01-25T08:02:08;62.78;;;23.05;;
37299;SDS011;23184;51.902;12.836;2023-01-25T08:04:35;59.60;;;23.48;;
37299;SDS011;23184;51.902;12.836;2023-01-25T08:07:01;56.65;;;22.15;;
37299;SDS011;23184;51.902;12.836;2023-01-25T08:09:26;74.03;;;26.38;;
37299;SDS011;23184;51.902;12.836;2023-01-25T08:11:52;63.83;;;21.85;;
37299;SDS011;23184;51.902;12.836;2023-01-25T08:14:18;63.38;;;22.10;;
37299;SDS011;23184;51.902;12.836;2023-01-25T08:16:43;64.43;;;20.50;;
37299;SDS011;23184;51.902;12.836;2023-01-25T08:19:09;55.13;;;21.13;;
37299;SDS011;23184;51.902;12.836;2023-01-25T08:21:35;59.25;;;21.73;;
37299;SDS011;23184;51.902;12.836;2023-01-25T08:24:02;47.28;;;18.95;;
37299;SDS011;23184;51.902;12.836;2023-01-25T08:26:29;52.42;;;20.08;;
37299;SDS011;23184;51.902;12.836;2023-01-25T08:28:55;58.83;;;20.90;;
37299;SDS011;23184;51.902;12.836;2023-01-25T08:31:23;53.05;;;20.00;;
37299;SDS011;23184;51.902;12.836;2023-01-25T08:33:50;58.92;;;21.65;;
37299;SDS011;23184;51.902;12.836;2023-01-25T08:36:16;73.32;;;25.33;;
37299;SDS011;23184;51.902;12.836;2023-01-25T08:38:44;71.43;;;26.30;;
37299;SDS011;23184;51.902;12.836;2023-01-25T08:41:11;59.83;;;21.13;;
37299;SDS011;23184;51.902;12.836;2023-01-25T08:43:42;56.75;;;19.08;;
37299;SDS011;23184;51.902;12.836;2023-01-25T08:46:08;57.42;;;20.75;;
37299;SDS011;23184;51.902;12.836;2023-01-25T08:48:34;70.82;;;22.83;;
37299;SDS011;23184;51.902;12.836;2023-01-25T08:50:59;65.78;;;22.33;;
37299;SDS011;23184;51.902;12.836;2023-01-25T08:53:31;69.75;;;22.90;;
37299;SDS011;23184;51.902;12.836;2023-01-25T08:56:04;69.25;;;25.40;;
37299;SDS011;23184;51.902;12.836;2023-01-25T08:58:30;80.90;;;25.47;;
37299;SDS011;23184;51.902;12.836;2023-01-25T09:00:59;78.50;;;25.50;;
37299;SDS011;23184;51.902;12.836;2023-01-25T09:03:27;64.32;;;22.17;;
37299;SDS011;23184;51.902;12.836;2023-01-25T09:05:53;61.75;;;21.98;;
37299;SDS011;23184;51.902;12.836;2023-01-25T09:08:18;71.55;;;23.02;;
37299;SDS011;23184;51.902;12.836;2023-01-25T09:10:44;77.97;;;23.80;;
37299;SDS011;23184;51.902;12.836;2023-01-25T09:13:09;73.03;;;23.08;;
37299;SDS011;23184;51.902;12.836;2023-01-25T09:15:36;72.43;;;22.90;;
37299;SDS011;23184;51.902;12.836;2023-01-25T09:18:02;73.60;;;24.00;;
37299;SDS011;23184;51.902;12.836;2023-01-25T09:20:28;75.38;;;24.95;;
37299;SDS011;23184;51.902;12.836;2023-01-25T09:22:54;65.90;;;23.48;;
37299;SDS011;23184;51.902;12.836;2023-01-25T09:25:19;151.48;;;41.10;;
37299;SDS011;23184;51.902;12.836;2023-01-25T09:27:47;358.45;;;86.43;;
37299;SDS011;23184;51.902;12.836;2023-01-25T09:30:15;174.60;;;48.55;;
37299;SDS011;23184;51.902;12.836;2023-01-25T09:32:41;78.95;;;25.70;;
37299;SDS011;23184;51.902;12.836;2023-01-25T09:35:07;59.88;;;22.00;;
37299;SDS011;23184;51.902;12.836;2023-01-25T09:37:32;71.93;;;24.35;;
37299;SDS011;23184;51.902;12.836;2023-01-25T09:39:58;72.05;;;23.63;;
37299;SDS011;23184;51.902;12.836;2023-01-25T09:42:45;72.03;;;24.05;;
37299;SDS011;23184;51.902;12.836;2023-01-25T09:45:23;89.13;;;26.83;;
37299;SDS011;23184;51.902;12.836;2023-01-25T09:55:56;140.88;;;46.72;;
37299;SDS011;23184;51.902;12.836;2023-01-25T09:58:27;104.60;;;34.75;;
37299;SDS011;23184;51.902;12.836;2023-01-25T10:01:01;77.30;;;27.33;;
37299;SDS011;23184;51.902;12.836;2023-01-25T10:03:54;84.25;;;27.27;;
37299;SDS011;23184;51.902;12.836;2023-01-25T10:06:23;89.63;;;29.20;;
37299;SDS011;23184;51.902;12.836;2023-01-25T10:09:04;90.85;;;29.65;;
37299;SDS011;23184;51.902;12.836;2023-01-25T10:11:43;77.65;;;25.73;;
37299;SDS011;23184;51.902;12.836;2023-01-25T10:14:10;76.57;;;23.65;;
37299;SDS011;23184;51.902;12.836;2023-01-25T10:21:48;75.97;;;24.63;;
37299;SDS011;23184;51.902;12.836;2023-01-25T10:24:35;81.63;;;24.05;;
37299;SDS011;23184;51.902;12.836;2023-01-25T10:27:22;69.68;;;23.88;;
37299;SDS011;23184;51.902;12.836;2023-01-25T10:30:30;68.00;;;21.08;;
37299;SDS011;23184;51.902;12.836;2023-01-25T10:33:00;69.43;;;22.25;;
37299;SDS011;23184;51.902;12.836;2023-01-25T10:35:36;63.85;;;22.55;;
37299;SDS011;23184;51.902;12.836;2023-01-25T10:38:14;69.43;;;21.27;;
37299;SDS011;23184;51.902;12.836;2023-01-25T10:40:46;55.13;;;18.58;;
37299;SDS011;23184;51.902;12.836;2023-01-25T10:43:17;55.40;;;18.15;;
37299;SDS011;23184;51.902;12.836;2023-01-25T10:45:45;50.28;;;17.75;;
37299;SDS011;23184;51.902;12.836;2023-01-25T10:48:22;55.80;;;20.10;;
37299;SDS011;23184;51.902;12.836;2023-01-25T10:50:54;68.57;;;21.73;;
37299;SDS011;23184;51.902;12.836;2023-01-25T10:56:00;64.20;;;22.17;;
37299;SDS011;23184;51.902;12.836;2023-01-25T10:58:45;62.65;;;22.05;;
37299;SDS011;23184;51.902;12.836;2023-01-25T11:01:26;73.85;;;23.27;;
37299;SDS011;23184;51.902;12.836;2023-01-25T11:03:56;64.38;;;21.08;;
37299;SDS011;23184;51.902;12.836;2023-01-25T11:06:32;81.55;;;25.70;;
37299;SDS011;23184;51.902;12.836;2023-01-25T11:09:28;62.08;;;21.02;;
37299;SDS011;23184;51.902;12.836;2023-01-25T11:11:59;60.03;;;21.53;;
37299;SDS011;23184;51.902;12.836;2023-01-25T11:14:41;67.35;;;22.35;;
37299;SDS011;23184;51.902;12.836;2023-01-25T11:17:16;49.63;;;19.23;;
37299;SDS011;23184;51.902;12.836;2023-01-25T11:19:47;60.38;;;19.67;;
37299;SDS011;23184;51.902;12.836;2023-01-25T11:24:43;65.00;;;20.33;;
37299;SDS011;23184;51.902;12.836;2023-01-25T11:27:17;55.55;;;18.85;;
37299;SDS011;23184;51.902;12.836;2023-01-25T11:30:05;53.47;;;18.48;;
37299;SDS011;23184;51.902;12.836;2023-01-25T11:32:37;57.72;;;17.63;;
37299;SDS011;23184;51.902;12.836;2023-01-25T11:35:04;57.92;;;18.98;;
37299;SDS011;23184;51.902;12.836;2023-01-25T11:37:44;55.65;;;18.38;;
37299;SDS011;23184;51.902;12.836;2023-01-25T11:40:29;55.25;;;18.38;;
37299;SDS011;23184;51.902;12.836;2023-01-25T11:49:18;52.25;;;17.73;;
37299;SDS011;23184;51.902;12.836;2023-01-25T11:54:44;51.38;;;17.67;;
37299;SDS011;23184;51.902;12.836;2023-01-25T11:57:32;53.83;;;18.30;;
37299;SDS011;23184;51.902;12.836;2023-01-25T12:06:05;54.28;;;16.55;;
37299;SDS011;23184;51.902;12.836;2023-01-25T12:11:39;41.72;;;15.77;;
37299;SDS011;23184;51.902;12.836;2023-01-25T12:22:34;44.72;;;15.13;;
37299;SDS011;23184;51.902;12.836;2023-01-25T12:30:43;44.58;;;15.30;;
37299;SDS011;23184;51.902;12.836;2023-01-25T12:33:19;46.50;;;15.50;;
37299;SDS011;23184;51.902;12.836;2023-01-25T12:36:03;45.13;;;16.13;;
37299;SDS011;23184;51.902;12.836;2023-01-25T12:44:35;43.43;;;16.20;;
37299;SDS011;23184;51.902;12.836;2023-01-25T12:49:39;37.50;;;14.02;;
37299;SDS011;23184;51.902;12.836;2023-01-25T12:52:27;46.35;;;16.42;;
37299;SDS011;23184;51.902;12.836;2023-01-25T12:54:59;45.47;;;15.30;;
37299;SDS011;23184;51.902;12.836;2023-01-25T13:03:11;42.15;;;13.05;;
37299;SDS011;23184;51.902;12.836;2023-01-25T13:06:01;48.88;;;16.85;;
37299;SDS011;23184;51.902;12.836;2023-01-25T13:13:51;39.70;;;14.95;;
37299;SDS011;23184;51.902;12.836;2023-01-25T13:16:36;46.28;;;17.05;;
37299;SDS011;23184;51.902;12.836;2023-01-25T13:19:09;44.05;;;15.95;;
37299;SDS011;23184;51.902;12.836;2023-01-25T13:22:02;55.95;;;18.27;;
37299;SDS011;23184;51.902;12.836;2023-01-25T13:24:29;52.78;;;16.90;;
37299;SDS011;23184;51.902;12.836;2023-01-25T13:26:57;58.45;;;19.55;;
37299;SDS011;23184;51.902;12.836;2023-01-25T13:32:04;55.60;;;18.27;;
37299;SDS011;23184;51.902;12.836;2023-01-25T13:37:23;60.67;;;19.52;;
37299;SDS011;23184;51.902;12.836;2023-01-25T13:39:53;59.60;;;17.27;;
37299;SDS011;23184;51.902;12.836;2023-01-25T13:42:57;56.65;;;18.52;;
37299;SDS011;23184;51.902;12.836;2023-01-25T13:45:25;55.95;;;17.75;;
37299;SDS011;23184;51.902;12.836;2023-01-25T13:48:02;55.70;;;19.60;;
37299;SDS011;23184;51.902;12.836;2023-01-25T13:50:34;51.55;;;15.77;;
37299;SDS011;23184;51.902;12.836;2023-01-25T13:55:39;54.45;;;18.15;;
37299;SDS011;23184;51.902;12.836;2023-01-25T13:58:10;56.65;;;17.58;;
37299;SDS011;23184;51.902;12.836;2023-01-25T14:01:04;50.90;;;17.25;;
37299;SDS011;23184;51.902;12.836;2023-01-25T14:03:41;62.33;;;17.90;;
37299;SDS011;23184;51.902;12.836;2023-01-25T14:06:15;48.65;;;16.45;;
37299;SDS011;23184;51.902;12.836;2023-01-25T14:08:44;58.63;;;18.73;;
37299;SDS011;23184;51.902;12.836;2023-01-25T14:11:16;51.90;;;18.08;;
37299;SDS011;23184;51.902;12.836;2023-01-25T14:16:27;48.90;;;16.30;;
37299;SDS011;23184;51.902;12.836;2023-01-25T14:18:54;56.33;;;18.00;;
37299;SDS011;23184;51.902;12.836;2023-01-25T14:21:22;47.85;;;16.73;;
37299;SDS011;23184;51.902;12.836;2023-01-25T14:23:47;45.22;;;17.00;;
37299;SDS011;23184;51.902;12.836;2023-01-25T14:26:24;44.25;;;16.45;;
37299;SDS011;23184;51.902;12.836;2023-01-25T14:28:52;44.10;;;15.43;;
37299;SDS011;23184;51.902;12.836;2023-01-25T14:31:27;41.70;;;13.75;;
37299;SDS011;23184;51.902;12.836;2023-01-25T14:34:00;37.15;;;13.38;;
37299;SDS011;23184;51.902;12.836;2023-01-25T14:36:29;36.30;;;13.70;;
37299;SDS011;23184;51.902;12.836;2023-01-25T14:38:58;39.30;;;13.75;;
37299;SDS011;23184;51.902;12.836;2023-01-25T14:41:26;42.03;;;15.20;;
37299;SDS011;23184;51.902;12.836;2023-01-25T14:43:56;42.20;;;15.32;;
37299;SDS011;23184;51.902;12.836;2023-01-25T14:46:26;46.17;;;15.98;;
37299;SDS011;23184;51.902;12.836;2023-01-25T14:51:39;40.33;;;13.85;;
37299;SDS011;23184;51.902;12.836;2023-01-25T14:54:18;41.95;;;15.18;;
37299;SDS011;23184;51.902;12.836;2023-01-25T14:56:49;47.42;;;14.95;;
37299;SDS011;23184;51.902;12.836;2023-01-25T14:59:43;51.78;;;16.63;;
37299;SDS011;23184;51.902;12.836;2023-01-25T15:04:57;53.85;;;15.18;;
37299;SDS011;23184;51.902;12.836;2023-01-25T15:07:44;48.72;;;15.93;;
37299;SDS011;23184;51.902;12.836;2023-01-25T15:12:53;59.85;;;17.25;;
37299;SDS011;23184;51.902;12.836;2023-01-25T15:15:25;54.35;;;15.73;;
37299;SDS011;23184;51.902;12.836;2023-01-25T15:17:52;54.78;;;18.20;;
37299;SDS011;23184;51.902;12.836;2023-01-25T15:22:56;51.75;;;18.02;;
37299;SDS011;23184;51.902;12.836;2023-01-25T15:25:25;50.63;;;17.33;;
37299;SDS011;23184;51.902;12.836;2023-01-25T15:27:50;48.47;;;15.43;;
37299;SDS011;23184;51.902;12.836;2023-01-25T15:30:16;45.33;;;15.90;;
37299;SDS011;23184;51.902;12.836;2023-01-25T15:32:43;49.63;;;15.25;;
37299;SDS011;23184;51.902;12.836;2023-01-25T15:35:13;42.95;;;14.05;;
37299;SDS011;23184;51.902;12.836;2023-01-25T15:37:43;44.50;;;14.63;;
37299;SDS011;23184;51.902;12.836;2023-01-25T15:40:09;43.38;;;15.27;;
37299;SDS011;23184;51.902;12.836;2023-01-25T15:42:36;42.70;;;14.50;;
37299;SDS011;23184;51.902;12.836;2023-01-25T15:45:01;40.53;;;13.35;;
37299;SDS011;23184;51.902;12.836;2023-01-25T15:47:28;40.67;;;13.73;;
37299;SDS011;23184;51.902;12.836;2023-01-25T15:49:54;45.95;;;16.95;;
37299;SDS011;23184;51.902;12.836;2023-01-25T15:52:20;46.90;;;16.02;;
37299;SDS011;23184;51.902;12.836;2023-01-25T15:54:45;51.80;;;17.73;;
37299;SDS011;23184;51.902;12.836;2023-01-25T15:57:19;58.72;;;18.17;;
37299;SDS011;23184;51.902;12.836;2023-01-25T15:59:51;59.50;;;20.65;;
37299;SDS011;23184;51.902;12.836;2023-01-25T16:02:19;56.65;;;18.10;;
37299;SDS011;23184;51.902;12.836;2023-01-25T16:04:45;45.70;;;16.55;;
37299;SDS011;23184;51.902;12.836;2023-01-25T16:07:12;46.42;;;15.48;;
37299;SDS011;23184;51.902;12.836;2023-01-25T16:09:47;39.88;;;13.60;;
37299;SDS011;23184;51.902;12.836;2023-01-25T16:12:13;39.67;;;14.43;;
37299;SDS011;23184;51.902;12.836;2023-01-25T16:14:39;49.67;;;15.57;;